sensor_id;sensor_type;location;lat;lon;timestamp;P1;durP1;ratioP1;P2;durP2;ratioP2
73672;SDS011;61972;19.480;-99.240;2022-10-15T00:02:13;8.43;;;6.20;;
73672;SDS011;61972;19.480;-99.240;2022-10-15T00:04:39;9.68;;;5.95;;
73672;SDS011;61972;19.480;-99.240;2022-10-15T00:07:05;7.45;;;5.93;;
73672;SDS011;61972;19.480;-99.240;2022-10-15T00:09:31;14.48;;;6.32;;
73672;SDS011;61972;19.480;-99.240;2022-10-15T00:11:58;10.15;;;5.90;;
73672;SDS011;61972;19.480;-99.240;2022-10-15T00:14:24;8.53;;;5.63;;
73672;SDS011;61972;19.480;-99.240;2022-10-15T00:16:50;7.57;;;5.57;;
73672;SDS011;61972;19.480;-99.240;2022-10-15T00:19:16;12.00;;;5.45;;
73672;SDS011;61972;19.480;-99.240;2022-10-15T00:21:42;8.20;;;5.45;;
73672;SDS011;61972;19.480;-99.240;2022-10-15T00:24:08;9.38;;;6.13;;
73672;SDS011;61972;19.480;-99.240;2022-10-15T00:26:34;9.30;;;5.73;;
73672;SDS011;61972;19.480;-99.240;2022-10-15T00:29:01;7.93;;;5.18;;
73672;SDS011;61972;19.480;-99.240;2022-10-15T00:31:29;10.98;;;5.22;;
73672;SDS011;61972;19.480;-99.240;2022-10-15T00:33:57;9.88;;;5.18;;
73672;SDS011;61972;19.480;-99.240;2022-10-15T00:36:26;9.40;;;5.07;;
73672;SDS011;61972;19.480;-99.240;2022-10-15T00:38:54;8.33;;;5.17;;
73672;SDS011;61972;19.480;-99.240;2022-10-15T00:41:22;12.55;;;5.57;;
73672;SDS011;61972;19.480;-99.240;2022-10-15T00:43:52;10.10;;;5.50;;
73672;SDS011;61972;19.480;-99.240;2022-10-15T00:46:27;11.70;;;5.57;;
73672;SDS011;61972;19.480;-99.240;2022-10-15T00:49:51;15.15;;;4.78;;
73672;SDS011;61972;19.480;-99.240;2022-10-15T00:52:04;16.20;;;4.80;;
73672;SDS011;61972;19.480;-99.240;2022-10-15T00:54:33;8.68;;;5.10;;
73672;SDS011;61972;19.480;-99.240;2022-10-15T00:57:05;6.55;;;4.55;;
73672;SDS011;61972;19.480;-99.240;2022-10-15T00:59:32;9.13;;;4.68;;
73672;SDS011;61972;19.480;-99.240;2022-10-15T01:02:03;9.07;;;4.22;;
73672;SDS011;61972;19.480;-99.240;2022-10-15T01:04:31;11.40;;;4.37;;
73672;SDS011;61972;19.480;-99.240;2022-10-15T01:06:57;7.70;;;4.53;;
73672;SDS011;61972;19.480;-99.240;2022-10-15T01:09:24;10.70;;;4.47;;
73672;SDS011;61972;19.480;-99.240;2022-10-15T01:11:51;6.50;;;3.97;;
73672;SDS011;61972;19.480;-99.240;2022-10-15T01:14:32;6.93;;;4.20;;
73672;SDS011;61972;19.480;-99.240;2022-10-15T01:32:02;10.73;;;4.63;;
73672;SDS011;61972;19.480;-99.240;2022-10-15T01:40:27;8.43;;;3.92;;
73672;SDS011;61972;19.480;-99.240;2022-10-15T01:43:00;9.63;;;3.90;;
73672;SDS011;61972;19.480;-99.240;2022-10-15T01:48:12;12.05;;;4.45;;
73672;SDS011;61972;19.480;-99.240;2022-10-15T01:50:44;6.93;;;4.03;;
73672;SDS011;61972;19.480;-99.240;2022-10-15T01:53:16;8.43;;;4.00;;
73672;SDS011;61972;19.480;-99.240;2022-10-15T01:55:51;7.72;;;4.18;;
73672;SDS011;61972;19.480;-99.240;2022-10-15T01:58:20;9.23;;;4.33;;
73672;SDS011;61972;19.480;-99.240;2022-10-15T02:00:48;7.70;;;4.00;;
73672;SDS011;61972;19.480;-99.240;2022-10-15T02:03:18;9.35;;;4.40;;
73672;SDS011;61972;19.480;-99.240;2022-10-15T02:05:46;11.00;;;4.18;;
73672;SDS011;61972;19.480;-99.240;2022-10-15T02:11:26;9.73;;;4.03;;
73672;SDS011;61972;19.480;-99.240;2022-10-15T02:13:59;7.18;;;4.40;;
73672;SDS011;61972;19.480;-99.240;2022-10-15T02:16:37;8.27;;;3.95;;
73672;SDS011;61972;19.480;-99.240;2022-10-15T02:19:13;9.27;;;4.00;;
73672;SDS011;61972;19.480;-99.240;2022-10-15T02:21:50;6.68;;;3.67;;
73672;SDS011;61972;19.480;-99.240;2022-10-15T02:24:25;7.30;;;3.70;;
73672;SDS011;61972;19.480;-99.240;2022-10-15T02:26:56;10.25;;;3.63;;
73672;SDS011;61972;19.480;-99.240;2022-10-15T02:29:26;9.15;;;4.00;;
73672;SDS011;61972;19.480;-99.240;2022-10-15T02:31:57;7.40;;;3.63;;
73672;SDS011;61972;19.480;-99.240;2022-10-15T02:34:26;7.50;;;3.58;;
73672;SDS011;61972;19.480;-99.240;2022-10-15T02:36:55;8.60;;;3.90;;
73672;SDS011;61972;19.480;-99.240;2022-10-15T02:39:23;7.40;;;3.80;;
73672;SDS011;61972;19.480;-99.240;2022-10-15T02:41:50;11.93;;;3.72;;
73672;SDS011;61972;19.480;-99.240;2022-10-15T02:44:18;9.85;;;3.75;;
73672;SDS011;61972;19.480;-99.240;2022-10-15T02:46:44;6.93;;;3.45;;
73672;SDS011;61972;19.480;-99.240;2022-10-15T02:49:10;8.70;;;3.77;;
73672;SDS011;61972;19.480;-99.240;2022-10-15T02:51:36;10.55;;;3.95;;
73672;SDS011;61972;19.480;-99.240;2022-10-15T02:54:03;10.02;;;3.63;;
73672;SDS011;61972;19.480;-99.240;2022-10-15T02:56:32;8.77;;;3.53;;
73672;SDS011;61972;19.480;-99.240;2022-10-15T02:58:59;10.35;;;3.70;;
73672;SDS011;61972;19.480;-99.240;2022-10-15T03:01:25;7.40;;;3.80;;
73672;SDS011;61972;19.480;-99.240;2022-10-15T03:03:51;9.65;;;3.78;;
73672;SDS011;61972;19.480;-99.240;2022-10-15T03:06:17;5.82;;;3.80;;
73672;SDS011;61972;19.480;-99.240;2022-10-15T03:08:43;6.78;;;3.60;;
73672;SDS011;61972;19.480;-99.240;2022-10-15T03:11:09;6.63;;;3.55;;
73672;SDS011;61972;19.480;-99.240;2022-10-15T03:13:38;8.37;;;3.47;;
73672;SDS011;61972;19.480;-99.240;2022-10-15T03:16:08;9.18;;;3.80;;
73672;SDS011;61972;19.480;-99.240;2022-10-15T03:18:35;7.72;;;3.90;;
73672;SDS011;61972;19.480;-99.240;2022-10-15T03:21:02;6.82;;;3.88;;
73672;SDS011;61972;19.480;-99.240;2022-10-15T03:23:28;8.13;;;4.00;;
73672;SDS011;61972;19.480;-99.240;2022-10-15T03:25:55;8.43;;;4.20;;
73672;SDS011;61972;19.480;-99.240;2022-10-15T03:28:21;6.90;;;3.40;;
73672;SDS011;61972;19.480;-99.240;2022-10-15T03:30:47;6.82;;;4.07;;
73672;SDS011;61972;19.480;-99.240;2022-10-15T03:33:13;7.18;;;3.60;;
73672;SDS011;61972;19.480;-99.240;2022-10-15T03:35:39;7.57;;;3.85;;
73672;SDS011;61972;19.480;-99.240;2022-10-15T03:38:06;7.33;;;3.50;;
73672;SDS011;61972;19.480;-99.240;2022-10-15T03:40:33;5.93;;;3.60;;
73672;SDS011;61972;19.480;-99.240;2022-10-15T03:43:00;7.65;;;3.33;;
73672;SDS011;61972;19.480;-99.240;2022-10-15T03:45:26;7.75;;;3.53;;
73672;SDS011;61972;19.480;-99.240;2022-10-15T03:47:52;7.90;;;3.50;;
73672;SDS011;61972;19.480;-99.240;2022-10-15T03:50:18;7.43;;;3.57;;
73672;SDS011;61972;19.480;-99.240;2022-10-15T03:52:44;6.85;;;3.45;;
73672;SDS011;61972;19.480;-99.240;2022-10-15T03:55:10;5.57;;;3.38;;
73672;SDS011;61972;19.480;-99.240;2022-10-15T03:57:37;6.50;;;3.33;;
73672;SDS011;61972;19.480;-99.240;2022-10-15T04:00:04;6.80;;;3.60;;
73672;SDS011;61972;19.480;-99.240;2022-10-15T04:02:32;8.70;;;3.70;;
73672;SDS011;61972;19.480;-99.240;2022-10-15T04:04:58;7.13;;;3.47;;
73672;SDS011;61972;19.480;-99.240;2022-10-15T04:07:24;6.50;;;3.60;;
73672;SDS011;61972;19.480;-99.240;2022-10-15T04:09:51;7.47;;;3.67;;
73672;SDS011;61972;19.480;-99.240;2022-10-15T04:12:16;7.57;;;3.60;;
73672;SDS011;61972;19.480;-99.240;2022-10-15T04:14:42;5.63;;;3.63;;
73672;SDS011;61972;19.480;-99.240;2022-10-15T04:17:09;6.30;;;3.30;;
73672;SDS011;61972;19.480;-99.240;2022-10-15T04:19:35;8.27;;;4.03;;
73672;SDS011;61972;19.480;-99.240;2022-10-15T04:22:01;7.13;;;3.57;;
73672;SDS011;61972;19.480;-99.240;2022-10-15T04:24:27;9.30;;;3.83;;
73672;SDS011;61972;19.480;-99.240;2022-10-15T04:26:53;8.23;;;4.00;;
73672;SDS011;61972;19.480;-99.240;2022-10-15T04:29:19;7.63;;;3.97;;
73672;SDS011;61972;19.480;-99.240;2022-10-15T04:31:45;6.30;;;3.70;;
73672;SDS011;61972;19.480;-99.240;2022-10-15T04:34:11;5.67;;;2.97;;
73672;SDS011;61972;19.480;-99.240;2022-10-15T04:36:38;6.43;;;3.28;;
73672;SDS011;61972;19.480;-99.240;2022-10-15T04:39:04;9.40;;;3.60;;
73672;SDS011;61972;19.480;-99.240;2022-10-15T04:41:30;7.13;;;4.05;;
73672;SDS011;61972;19.480;-99.240;2022-10-15T04:43:57;6.72;;;3.45;;
73672;SDS011;61972;19.480;-99.240;2022-10-15T04:46:23;7.60;;;3.20;;
73672;SDS011;61972;19.480;-99.240;2022-10-15T04:48:51;7.65;;;3.03;;
73672;SDS011;61972;19.480;-99.240;2022-10-15T04:51:22;5.72;;;3.08;;
73672;SDS011;61972;19.480;-99.240;2022-10-15T04:53:48;6.82;;;3.70;;
73672;SDS011;61972;19.480;-99.240;2022-10-15T04:56:15;7.03;;;3.67;;
73672;SDS011;61972;19.480;-99.240;2022-10-15T04:58:44;6.50;;;3.40;;
73672;SDS011;61972;19.480;-99.240;2022-10-15T05:01:12;6.65;;;3.25;;
73672;SDS011;61972;19.480;-99.240;2022-10-15T05:03:41;7.93;;;3.42;;
73672;SDS011;61972;19.480;-99.240;2022-10-15T05:06:09;7.43;;;3.40;;
73672;SDS011;61972;19.480;-99.240;2022-10-15T05:08:37;6.57;;;3.50;;
73672;SDS011;61972;19.480;-99.240;2022-10-15T05:11:24;8.17;;;3.80;;
73672;SDS011;61972;19.480;-99.240;2022-10-15T05:13:51;5.50;;;3.22;;
73672;SDS011;61972;19.480;-99.240;2022-10-15T05:16:26;7.10;;;3.47;;
73672;SDS011;61972;19.480;-99.240;2022-10-15T05:18:57;9.27;;;3.60;;
73672;SDS011;61972;19.480;-99.240;2022-10-15T05:21:25;5.38;;;3.50;;
73672;SDS011;61972;19.480;-99.240;2022-10-15T05:23:52;6.73;;;3.30;;
73672;SDS011;61972;19.480;-99.240;2022-10-15T05:26:20;6.32;;;3.40;;
73672;SDS011;61972;19.480;-99.240;2022-10-15T05:28:48;6.00;;;3.70;;
73672;SDS011;61972;19.480;-99.240;2022-10-15T05:31:15;6.97;;;3.78;;
73672;SDS011;61972;19.480;-99.240;2022-10-15T05:33:44;7.03;;;3.50;;
73672;SDS011;61972;19.480;-99.240;2022-10-15T05:36:15;6.90;;;3.43;;
73672;SDS011;61972;19.480;-99.240;2022-10-15T05:38:42;7.35;;;3.80;;
73672;SDS011;61972;19.480;-99.240;2022-10-15T05:41:09;6.65;;;3.80;;
73672;SDS011;61972;19.480;-99.240;2022-10-15T05:43:35;5.32;;;3.45;;
73672;SDS011;61972;19.480;-99.240;2022-10-15T05:46:01;6.13;;;3.72;;
73672;SDS011;61972;19.480;-99.240;2022-10-15T05:48:28;7.53;;;3.67;;
73672;SDS011;61972;19.480;-99.240;2022-10-15T05:50:59;5.85;;;3.40;;
73672;SDS011;61972;19.480;-99.240;2022-10-15T05:53:26;6.65;;;3.47;;
73672;SDS011;61972;19.480;-99.240;2022-10-15T05:55:52;6.50;;;3.65;;
73672;SDS011;61972;19.480;-99.240;2022-10-15T05:58:19;8.05;;;3.42;;
73672;SDS011;61972;19.480;-99.240;2022-10-15T06:00:45;5.80;;;3.17;;
73672;SDS011;61972;19.480;-99.240;2022-10-15T06:03:21;6.70;;;3.15;;
73672;SDS011;61972;19.480;-99.240;2022-10-15T06:05:48;5.97;;;3.67;;
73672;SDS011;61972;19.480;-99.240;2022-10-15T06:08:14;15.30;;;11.40;;
73672;SDS011;61972;19.480;-99.240;2022-10-15T06:10:41;21.67;;;14.98;;
73672;SDS011;61972;19.480;-99.240;2022-10-15T06:13:07;26.50;;;18.53;;
73672;SDS011;61972;19.480;-99.240;2022-10-15T06:15:37;31.50;;;20.25;;
73672;SDS011;61972;19.480;-99.240;2022-10-15T06:18:05;27.83;;;19.25;;
73672;SDS011;61972;19.480;-99.240;2022-10-15T06:20:31;25.65;;;17.02;;
73672;SDS011;61972;19.480;-99.240;2022-10-15T06:22:57;24.92;;;15.23;;
73672;SDS011;61972;19.480;-99.240;2022-10-15T06:25:24;18.30;;;13.63;;
73672;SDS011;61972;19.480;-99.240;2022-10-15T06:27:51;18.48;;;11.95;;
73672;SDS011;61972;19.480;-99.240;2022-10-15T06:30:18;14.27;;;10.40;;
73672;SDS011;61972;19.480;-99.240;2022-10-15T06:32:48;15.27;;;9.13;;
73672;SDS011;61972;19.480;-99.240;2022-10-15T06:35:16;14.63;;;10.27;;
73672;SDS011;61972;19.480;-99.240;2022-10-15T06:37:43;14.33;;;9.93;;
73672;SDS011;61972;19.480;-99.240;2022-10-15T06:40:10;17.55;;;9.88;;
73672;SDS011;61972;19.480;-99.240;2022-10-15T06:42:36;15.70;;;9.35;;
73672;SDS011;61972;19.480;-99.240;2022-10-15T06:45:03;15.68;;;9.23;;
73672;SDS011;61972;19.480;-99.240;2022-10-15T06:47:30;13.60;;;9.02;;
73672;SDS011;61972;19.480;-99.240;2022-10-15T06:49:56;18.23;;;9.20;;
73672;SDS011;61972;19.480;-99.240;2022-10-15T06:52:22;16.73;;;8.48;;
73672;SDS011;61972;19.480;-99.240;2022-10-15T06:54:49;13.48;;;9.02;;
73672;SDS011;61972;19.480;-99.240;2022-10-15T06:57:15;12.02;;;8.63;;
73672;SDS011;61972;19.480;-99.240;2022-10-15T06:59:42;13.48;;;9.00;;
73672;SDS011;61972;19.480;-99.240;2022-10-15T07:02:08;13.47;;;8.80;;
73672;SDS011;61972;19.480;-99.240;2022-10-15T07:04:35;16.63;;;9.05;;
73672;SDS011;61972;19.480;-99.240;2022-10-15T07:07:01;13.48;;;8.75;;
73672;SDS011;61972;19.480;-99.240;2022-10-15T07:09:27;14.68;;;9.02;;
73672;SDS011;61972;19.480;-99.240;2022-10-15T07:11:53;14.93;;;8.38;;
73672;SDS011;61972;19.480;-99.240;2022-10-15T07:14:20;10.97;;;8.33;;
73672;SDS011;61972;19.480;-99.240;2022-10-15T07:16:46;12.35;;;8.65;;
73672;SDS011;61972;19.480;-99.240;2022-10-15T07:19:12;12.90;;;8.60;;
73672;SDS011;61972;19.480;-99.240;2022-10-15T07:21:39;15.13;;;8.23;;
73672;SDS011;61972;19.480;-99.240;2022-10-15T07:24:05;13.45;;;8.45;;
73672;SDS011;61972;19.480;-99.240;2022-10-15T07:26:31;13.80;;;8.13;;
73672;SDS011;61972;19.480;-99.240;2022-10-15T07:28:57;11.52;;;7.97;;
73672;SDS011;61972;19.480;-99.240;2022-10-15T07:31:24;11.32;;;7.82;;
73672;SDS011;61972;19.480;-99.240;2022-10-15T07:33:51;11.48;;;7.72;;
73672;SDS011;61972;19.480;-99.240;2022-10-15T07:36:17;11.45;;;7.95;;
73672;SDS011;61972;19.480;-99.240;2022-10-15T07:38:45;11.80;;;7.80;;
73672;SDS011;61972;19.480;-99.240;2022-10-15T07:41:11;10.57;;;7.47;;
73672;SDS011;61972;19.480;-99.240;2022-10-15T07:43:38;11.27;;;7.55;;
73672;SDS011;61972;19.480;-99.240;2022-10-15T07:46:04;12.52;;;7.80;;
73672;SDS011;61972;19.480;-99.240;2022-10-15T07:48:31;12.35;;;7.70;;
73672;SDS011;61972;19.480;-99.240;2022-10-15T07:51:01;10.57;;;7.20;;
73672;SDS011;61972;19.480;-99.240;2022-10-15T07:53:29;11.27;;;7.22;;
73672;SDS011;61972;19.480;-99.240;2022-10-15T07:55:59;10.45;;;7.85;;
73672;SDS011;61972;19.480;-99.240;2022-10-15T07:58:25;10.15;;;7.30;;
73672;SDS011;61972;19.480;-99.240;2022-10-15T08:00:54;10.25;;;7.53;;
73672;SDS011;61972;19.480;-99.240;2022-10-15T08:03:23;12.10;;;7.77;;
73672;SDS011;61972;19.480;-99.240;2022-10-15T08:05:49;10.43;;;7.10;;
73672;SDS011;61972;19.480;-99.240;2022-10-15T08:08:18;10.73;;;7.22;;
73672;SDS011;61972;19.480;-99.240;2022-10-15T08:10:45;10.15;;;7.50;;
73672;SDS011;61972;19.480;-99.240;2022-10-15T08:13:11;10.13;;;7.32;;
73672;SDS011;61972;19.480;-99.240;2022-10-15T08:15:38;11.37;;;6.87;;
73672;SDS011;61972;19.480;-99.240;2022-10-15T08:18:05;9.52;;;7.13;;
73672;SDS011;61972;19.480;-99.240;2022-10-15T08:20:32;10.43;;;7.40;;
73672;SDS011;61972;19.480;-99.240;2022-10-15T08:22:58;9.15;;;6.93;;
73672;SDS011;61972;19.480;-99.240;2022-10-15T08:25:24;11.80;;;7.55;;
73672;SDS011;61972;19.480;-99.240;2022-10-15T08:27:52;11.20;;;7.50;;
73672;SDS011;61972;19.480;-99.240;2022-10-15T08:30:18;10.50;;;7.30;;
73672;SDS011;61972;19.480;-99.240;2022-10-15T08:32:44;9.57;;;6.75;;
73672;SDS011;61972;19.480;-99.240;2022-10-15T08:35:10;10.02;;;7.25;;
73672;SDS011;61972;19.480;-99.240;2022-10-15T08:37:36;10.88;;;6.80;;
73672;SDS011;61972;19.480;-99.240;2022-10-15T08:40:03;9.47;;;6.47;;
73672;SDS011;61972;19.480;-99.240;2022-10-15T08:42:31;9.80;;;6.57;;
73672;SDS011;61972;19.480;-99.240;2022-10-15T08:45:11;9.35;;;6.68;;
73672;SDS011;61972;19.480;-99.240;2022-10-15T08:47:50;10.20;;;6.60;;
73672;SDS011;61972;19.480;-99.240;2022-10-15T08:50:42;8.52;;;6.35;;
73672;SDS011;61972;19.480;-99.240;2022-10-15T08:53:18;9.63;;;6.60;;
73672;SDS011;61972;19.480;-99.240;2022-10-15T08:55:50;9.35;;;6.85;;
73672;SDS011;61972;19.480;-99.240;2022-10-15T09:01:24;8.63;;;6.15;;
73672;SDS011;61972;19.480;-99.240;2022-10-15T09:04:13;8.93;;;6.47;;
73672;SDS011;61972;19.480;-99.240;2022-10-15T09:10:51;8.32;;;6.05;;
73672;SDS011;61972;19.480;-99.240;2022-10-15T09:13:12;9.10;;;6.22;;
73672;SDS011;61972;19.480;-99.240;2022-10-15T09:15:54;9.05;;;6.28;;
73672;SDS011;61972;19.480;-99.240;2022-10-15T09:18:35;8.15;;;6.05;;
73672;SDS011;61972;19.480;-99.240;2022-10-15T09:21:05;9.00;;;6.57;;
73672;SDS011;61972;19.480;-99.240;2022-10-15T09:23:33;7.80;;;5.68;;
73672;SDS011;61972;19.480;-99.240;2022-10-15T09:31:53;8.35;;;5.80;;
73672;SDS011;61972;19.480;-99.240;2022-10-15T09:34:55;9.23;;;6.43;;
73672;SDS011;61972;19.480;-99.240;2022-10-15T09:38:13;9.60;;;6.15;;
73672;SDS011;61972;19.480;-99.240;2022-10-15T09:43:12;7.00;;;5.25;;
73672;SDS011;61972;19.480;-99.240;2022-10-15T09:45:39;8.93;;;5.80;;
73672;SDS011;61972;19.480;-99.240;2022-10-15T09:48:11;10.20;;;5.90;;
73672;SDS011;61972;19.480;-99.240;2022-10-15T09:50:43;8.70;;;6.00;;
73672;SDS011;61972;19.480;-99.240;2022-10-15T09:53:39;7.55;;;5.75;;
73672;SDS011;61972;19.480;-99.240;2022-10-15T09:56:14;8.23;;;5.40;;
73672;SDS011;61972;19.480;-99.240;2022-10-15T09:58:56;8.80;;;5.63;;
73672;SDS011;61972;19.480;-99.240;2022-10-15T10:01:27;8.23;;;5.47;;
73672;SDS011;61972;19.480;-99.240;2022-10-15T10:04:16;7.63;;;5.55;;
73672;SDS011;61972;19.480;-99.240;2022-10-15T10:06:51;10.70;;;5.97;;
73672;SDS011;61972;19.480;-99.240;2022-10-15T10:09:20;7.65;;;5.30;;
73672;SDS011;61972;19.480;-99.240;2022-10-15T10:11:52;7.93;;;6.00;;
73672;SDS011;61972;19.480;-99.240;2022-10-15T10:14:22;8.30;;;5.77;;
73672;SDS011;61972;19.480;-99.240;2022-10-15T10:17:06;7.65;;;5.60;;
73672;SDS011;61972;19.480;-99.240;2022-10-15T10:20:01;7.55;;;5.28;;
73672;SDS011;61972;19.480;-99.240;2022-10-15T10:27:54;6.93;;;5.13;;
73672;SDS011;61972;19.480;-99.240;2022-10-15T10:30:21;7.72;;;5.22;;
73672;SDS011;61972;19.480;-99.240;2022-10-15T10:32:47;9.38;;;5.68;;
73672;SDS011;61972;19.480;-99.240;2022-10-15T10:35:20;7.78;;;5.15;;
73672;SDS011;61972;19.480;-99.240;2022-10-15T10:37:48;6.93;;;4.95;;
73672;SDS011;61972;19.480;-99.240;2022-10-15T10:40:22;7.40;;;5.40;;
73672;SDS011;61972;19.480;-99.240;2022-10-15T10:43:26;6.97;;;4.90;;
73672;SDS011;61972;19.480;-99.240;2022-10-15T10:48:37;7.88;;;5.18;;
73672;SDS011;61972;19.480;-99.240;2022-10-15T10:51:07;7.90;;;5.50;;
73672;SDS011;61972;19.480;-99.240;2022-10-15T10:53:46;7.47;;;4.97;;
73672;SDS011;61972;19.480;-99.240;2022-10-15T10:56:32;7.57;;;5.60;;
73672;SDS011;61972;19.480;-99.240;2022-10-15T11:01:55;6.75;;;4.95;;
73672;SDS011;61972;19.480;-99.240;2022-10-15T11:04:25;7.22;;;5.10;;
73672;SDS011;61972;19.480;-99.240;2022-10-15T11:07:00;7.03;;;4.73;;
73672;SDS011;61972;19.480;-99.240;2022-10-15T11:09:46;6.95;;;4.88;;
73672;SDS011;61972;19.480;-99.240;2022-10-15T11:15:35;6.75;;;5.15;;
73672;SDS011;61972;19.480;-99.240;2022-10-15T11:26:47;6.60;;;4.43;;
73672;SDS011;61972;19.480;-99.240;2022-10-15T11:29:45;6.32;;;4.60;;
73672;SDS011;61972;19.480;-99.240;2022-10-15T11:44:12;6.25;;;4.43;;
73672;SDS011;61972;19.480;-99.240;2022-10-15T11:49:43;6.47;;;4.43;;
73672;SDS011;61972;19.480;-99.240;2022-10-15T11:57:51;6.45;;;4.13;;
73672;SDS011;61972;19.480;-99.240;2022-10-15T12:00:32;7.25;;;4.78;;
73672;SDS011;61972;19.480;-99.240;2022-10-15T12:03:23;6.27;;;4.20;;
73672;SDS011;61972;19.480;-99.240;2022-10-15T12:05:57;5.95;;;4.53;;
73672;SDS011;61972;19.480;-99.240;2022-10-15T12:08:29;6.55;;;4.55;;
73672;SDS011;61972;19.480;-99.240;2022-10-15T12:13:35;5.82;;;4.55;;
73672;SDS011;61972;19.480;-99.240;2022-10-15T12:19:20;6.07;;;4.40;;
73672;SDS011;61972;19.480;-99.240;2022-10-15T12:32:38;6.22;;;4.38;;
73672;SDS011;61972;19.480;-99.240;2022-10-15T12:37:41;5.45;;;3.85;;
73672;SDS011;61972;19.480;-99.240;2022-10-15T12:40:38;6.50;;;4.05;;
73672;SDS011;61972;19.480;-99.240;2022-10-15T12:43:00;6.20;;;4.17;;
73672;SDS011;61972;19.480;-99.240;2022-10-15T12:45:33;7.30;;;3.67;;
73672;SDS011;61972;19.480;-99.240;2022-10-15T12:50:34;6.40;;;3.95;;
73672;SDS011;61972;19.480;-99.240;2022-10-15T12:53:04;6.07;;;4.20;;
73672;SDS011;61972;19.480;-99.240;2022-10-15T12:58:40;6.03;;;4.32;;
73672;SDS011;61972;19.480;-99.240;2022-10-15T13:03:40;8.88;;;3.92;;
73672;SDS011;61972;19.480;-99.240;2022-10-15T13:11:49;5.40;;;3.83;;
73672;SDS011;61972;19.480;-99.240;2022-10-15T13:16:53;5.45;;;4.00;;
73672;SDS011;61972;19.480;-99.240;2022-10-15T13:19:24;5.35;;;4.10;;
73672;SDS011;61972;19.480;-99.240;2022-10-15T13:22:01;5.87;;;4.00;;
73672;SDS011;61972;19.480;-99.240;2022-10-15T13:24:29;5.20;;;3.95;;
73672;SDS011;61972;19.480;-99.240;2022-10-15T13:27:12;5.55;;;4.10;;
73672;SDS011;61972;19.480;-99.240;2022-10-15T13:29:53;5.15;;;3.70;;
73672;SDS011;61972;19.480;-99.240;2022-10-15T13:32:21;5.63;;;3.85;;
73672;SDS011;61972;19.480;-99.240;2022-10-15T13:34:48;4.77;;;3.50;;
73672;SDS011;61972;19.480;-99.240;2022-10-15T13:37:16;5.43;;;3.88;;
73672;SDS011;61972;19.480;-99.240;2022-10-15T13:39:48;5.38;;;3.85;;
73672;SDS011;61972;19.480;-99.240;2022-10-15T13:44:54;5.28;;;3.90;;
73672;SDS011;61972;19.480;-99.240;2022-10-15T13:47:32;4.97;;;3.70;;
73672;SDS011;61972;19.480;-99.240;2022-10-15T13:52:52;5.30;;;3.85;;
73672;SDS011;61972;19.480;-99.240;2022-10-15T13:55:24;4.90;;;3.30;;
73672;SDS011;61972;19.480;-99.240;2022-10-15T13:58:02;5.35;;;3.70;;
73672;SDS011;61972;19.480;-99.240;2022-10-15T14:00:42;5.40;;;3.70;;
73672;SDS011;61972;19.480;-99.240;2022-10-15T14:03:15;5.75;;;3.70;;
73672;SDS011;61972;19.480;-99.240;2022-10-15T14:05:47;4.70;;;3.50;;
73672;SDS011;61972;19.480;-99.240;2022-10-15T14:08:16;5.05;;;3.70;;
73672;SDS011;61972;19.480;-99.240;2022-10-15T14:10:42;4.57;;;3.17;;
73672;SDS011;61972;19.480;-99.240;2022-10-15T14:13:11;5.83;;;3.50;;
73672;SDS011;61972;19.480;-99.240;2022-10-15T14:15:42;4.88;;;3.45;;
73672;SDS011;61972;19.480;-99.240;2022-10-15T14:18:11;5.30;;;3.70;;
73672;SDS011;61972;19.480;-99.240;2022-10-15T14:20:44;4.45;;;3.30;;
73672;SDS011;61972;19.480;-99.240;2022-10-15T14:23:15;5.32;;;3.60;;
73672;SDS011;61972;19.480;-99.240;2022-10-15T14:25:50;4.50;;;3.30;;
73672;SDS011;61972;19.480;-99.240;2022-10-15T14:28:28;5.03;;;3.30;;
73672;SDS011;61972;19.480;-99.240;2022-10-15T14:30:57;6.35;;;3.60;;
73672;SDS011;61972;19.480;-99.240;2022-10-15T14:33:32;4.30;;;3.33;;
73672;SDS011;61972;19.480;-99.240;2022-10-15T14:36:06;4.72;;;3.38;;
73672;SDS011;61972;19.480;-99.240;2022-10-15T14:38:37;5.60;;;3.43;;
73672;SDS011;61972;19.480;-99.240;2022-10-15T14:41:14;4.65;;;3.38;;
73672;SDS011;61972;19.480;-99.240;2022-10-15T14:44:15;4.47;;;3.20;;
73672;SDS011;61972;19.480;-99.240;2022-10-15T14:46:48;4.88;;;3.28;;
73672;SDS011;61972;19.480;-99.240;2022-10-15T14:52:05;4.13;;;3.03;;
73672;SDS011;61972;19.480;-99.240;2022-10-15T14:54:40;4.65;;;3.10;;
73672;SDS011;61972;19.480;-99.240;2022-10-15T14:57:21;5.13;;;3.65;;
73672;SDS011;61972;19.480;-99.240;2022-10-15T14:59:52;4.90;;;3.30;;
73672;SDS011;61972;19.480;-99.240;2022-10-15T15:02:21;4.50;;;3.17;;
73672;SDS011;61972;19.480;-99.240;2022-10-15T15:05:42;4.63;;;3.37;;
73672;SDS011;61972;19.480;-99.240;2022-10-15T15:07:48;4.93;;;3.30;;
73672;SDS011;61972;19.480;-99.240;2022-10-15T15:10:14;4.78;;;3.42;;
73672;SDS011;61972;19.480;-99.240;2022-10-15T15:12:41;4.72;;;3.30;;
73672;SDS011;61972;19.480;-99.240;2022-10-15T15:15:15;4.30;;;2.90;;
73672;SDS011;61972;19.480;-99.240;2022-10-15T15:17:43;4.17;;;2.93;;
73672;SDS011;61972;19.480;-99.240;2022-10-15T15:20:09;4.50;;;3.10;;
73672;SDS011;61972;19.480;-99.240;2022-10-15T15:22:36;5.38;;;3.30;;
73672;SDS011;61972;19.480;-99.240;2022-10-15T15:25:05;4.88;;;3.33;;
73672;SDS011;61972;19.480;-99.240;2022-10-15T15:27:40;4.15;;;3.08;;
73672;SDS011;61972;19.480;-99.240;2022-10-15T15:30:06;4.80;;;3.33;;
73672;SDS011;61972;19.480;-99.240;2022-10-15T15:32:38;4.95;;;2.95;;
73672;SDS011;61972;19.480;-99.240;2022-10-15T15:35:08;4.53;;;3.53;;
73672;SDS011;61972;19.480;-99.240;2022-10-15T15:37:42;7.63;;;3.40;;
73672;SDS011;61972;19.480;-99.240;2022-10-15T15:40:08;4.82;;;3.45;;
73672;SDS011;61972;19.480;-99.240;2022-10-15T15:42:43;7.60;;;3.80;;
73672;SDS011;61972;19.480;-99.240;2022-10-15T15:45:15;5.03;;;3.60;;
73672;SDS011;61972;19.480;-99.240;2022-10-15T15:47:43;6.90;;;3.55;;
73672;SDS011;61972;19.480;-99.240;2022-10-15T15:50:09;6.28;;;4.03;;
73672;SDS011;61972;19.480;-99.240;2022-10-15T15:52:35;6.28;;;3.55;;
73672;SDS011;61972;19.480;-99.240;2022-10-15T15:55:02;7.47;;;3.90;;
73672;SDS011;61972;19.480;-99.240;2022-10-15T15:57:28;7.13;;;3.95;;
73672;SDS011;61972;19.480;-99.240;2022-10-15T15:59:54;6.07;;;4.25;;
73672;SDS011;61972;19.480;-99.240;2022-10-15T16:02:20;5.85;;;4.20;;
73672;SDS011;61972;19.480;-99.240;2022-10-15T16:04:46;7.10;;;4.90;;
73672;SDS011;61972;19.480;-99.240;2022-10-15T16:07:12;9.60;;;5.20;;
73672;SDS011;61972;19.480;-99.240;2022-10-15T16:09:38;8.23;;;5.00;;
73672;SDS011;61972;19.480;-99.240;2022-10-15T16:12:04;9.55;;;6.30;;
73672;SDS011;61972;19.480;-99.240;2022-10-15T16:14:30;8.77;;;5.25;;
73672;SDS011;61972;19.480;-99.240;2022-10-15T16:16:57;8.15;;;4.90;;
73672;SDS011;61972;19.480;-99.240;2022-10-15T16:19:23;8.57;;;4.70;;
73672;SDS011;61972;19.480;-99.240;2022-10-15T16:21:49;9.40;;;5.72;;
73672;SDS011;61972;19.480;-99.240;2022-10-15T16:24:15;8.82;;;5.10;;
73672;SDS011;61972;19.480;-99.240;2022-10-15T16:26:42;7.40;;;4.90;;
73672;SDS011;61972;19.480;-99.240;2022-10-15T16:29:08;8.95;;;5.45;;
73672;SDS011;61972;19.480;-99.240;2022-10-15T16:31:34;8.80;;;5.10;;
73672;SDS011;61972;19.480;-99.240;2022-10-15T16:34:04;10.52;;;5.15;;
73672;SDS011;61972;19.480;-99.240;2022-10-15T16:36:30;7.15;;;5.13;;
73672;SDS011;61972;19.480;-99.240;2022-10-15T16:38:57;6.93;;;4.22;;
73672;SDS011;61972;19.480;-99.240;2022-10-15T16:41:23;7.32;;;4.90;;
73672;SDS011;61972;19.480;-99.240;2022-10-15T16:43:49;7.17;;;4.90;;
73672;SDS011;61972;19.480;-99.240;2022-10-15T16:46:16;7.25;;;4.95;;